Time;durP1;ratioP1;P1;durP2;ratioP2;P2;SDS_P1;SDS_P2;PMS_P1;PMS_P2;Temp;Humidity;BMP_temperature;BMP_pressure;BME280_temperature;BME280_humidity;BME280_pressure;Samples;Min_cycle;Max_cycle;Signal;HPM_P1;HPM_P2
2022/04/28 00:00:03;;;;;;;;;;;5.00;99.90;;;;;;5069233;28;19920;-75
2022/04/28 00:02:30;;;;;;;;;;;5.00;99.90;;;;;;5059732;28;19974;-75
2022/04/28 00:04:57;;;;;;;;;;;5.10;99.90;;;;;;5053046;28;19963;-75
2022/04/28 00:07:26;;;;;;;;;;;5.20;99.90;;;;;;5067077;28;19932;-75
2022/04/28 00:09:52;;;;;;;;;;;5.20;99.90;;;;;;5068926;28;19927;-75
2022/04/28 00:12:19;;;;;;;;;;;5.20;99.90;;;;;;5066533;28;20018;-74
2022/04/28 00:14:45;;;;;;;;;;;5.10;99.90;;;;;;5069142;28;20173;-74
2022/04/28 00:17:12;;;;;;;;;;;5.10;99.90;;;;;;5067439;28;19946;-75
2022/04/28 00:19:42;;;;;;;;;;;5.10;99.90;;;;;;5068538;28;19926;-76
2022/04/28 00:22:08;;;;;;;;;;;5.00;99.90;;;;;;5069398;28;19920;-75
2022/04/28 00:24:35;;;;;;;;;;;5.00;99.90;;;;;;5065066;28;19937;-75
2022/04/28 00:27:03;;;;;;;;;;;4.90;99.90;;;;;;5068255;28;20375;-75
2022/04/28 00:29:29;;;;;;;;;;;4.90;99.90;;;;;;5069678;28;20268;-75
2022/04/28 00:31:56;;;;;;;;;;;4.80;99.90;;;;;;5066359;28;19927;-76
2022/04/28 00:34:22;;;;;;;;;;;4.80;99.90;;;;;;5067119;28;19920;-75
2022/04/28 00:36:49;;;;;;;;;;;4.80;99.90;;;;;;5062925;28;19924;-75
2022/04/28 00:39:16;;;;;;;;;;;4.80;99.90;;;;;;5069041;28;19931;-75
2022/04/28 00:41:45;;;;;;;;;;;4.80;99.90;;;;;;5069300;28;20046;-76
2022/04/28 00:44:14;;;;;;;;;;;4.80;99.90;;;;;;5066710;28;19920;-74
2022/04/28 00:46:43;;;;;;;;;;;4.80;99.90;;;;;;5067351;28;20371;-74
2022/04/28 00:51:55;;;;;;;;;;;4.90;99.90;;;;;;5069019;28;19920;-76
2022/04/28 00:54:26;;;;;;;;;;;5.10;99.90;;;;;;5064527;28;20391;-74
2022/04/28 00:56:53;;;;;;;;;;;5.10;99.90;;;;;;5067037;28;20280;-74
2022/04/28 00:59:19;;;;;;;;;;;5.10;99.90;;;;;;5067430;28;19920;-74
2022/04/28 01:01:46;;;;;;;;;;;5.20;99.90;;;;;;5048788;28;19927;-74
2022/04/28 01:04:13;;;;;;;;;;;5.20;99.90;;;;;;5056660;28;20345;-74
2022/04/28 01:06:41;;;;;;;;;;;5.20;99.90;;;;;;5066562;28;20310;-74
2022/04/28 01:09:08;;;;;;;;;;;5.30;99.90;;;;;;5068924;28;19921;-74
2022/04/28 01:11:39;;;;;;;;;;;5.30;99.90;;;;;;5068567;28;20119;-74
2022/04/28 01:14:06;;;;;;;;;;;5.30;99.90;;;;;;5067554;28;19968;-75
2022/04/28 01:16:33;;;;;;;;;;;5.30;99.90;;;;;;5067415;28;19920;-74
2022/04/28 01:19:00;;;;;;;;;;;5.30;99.90;;;;;;5068521;28;19921;-75
2022/04/28 01:21:26;;;;;;;;;;;5.20;99.90;;;;;;5068424;28;19972;-75
2022/04/28 01:23:54;;;;;;;;;;;5.20;99.90;;;;;;5062986;28;20285;-75
2022/04/28 01:26:22;;;;;;;;;;;5.10;99.90;;;;;;5059479;28;20007;-75
2022/04/28 01:28:49;;;;;;;;;;;5.00;99.90;;;;;;5050935;28;19945;-75
2022/04/28 01:31:15;;;;;;;;;;;4.90;99.90;;;;;;5050338;28;19921;-75
2022/04/28 01:33:42;;;;;;;;;;;4.70;99.90;;;;;;5051923;28;19975;-76
2022/04/28 01:36:10;;;;;;;;;;;4.50;99.90;;;;;;5058133;28;19921;-75
2022/04/28 01:38:36;;;;;;;;;;;4.30;99.90;;;;;;5068774;28;19920;-75
2022/04/28 01:41:03;;;;;;;;;;;4.10;99.90;;;;;;5071678;28;19999;-75
2022/04/28 01:43:30;;;;;;;;;;;4.00;99.90;;;;;;5070374;28;19920;-76
2022/04/28 01:45:56;;;;;;;;;;;3.80;99.90;;;;;;5069637;28;20307;-76
2022/04/28 01:48:23;;;;;;;;;;;3.70;99.90;;;;;;5069950;28;20424;-76
2022/04/28 01:56:20;;;;;;;;;;;3.40;99.90;;;;;;5070898;28;19950;-76
2022/04/28 01:58:46;;;;;;;;;;;3.30;99.90;;;;;;5066652;28;20396;-76
2022/04/28 02:01:13;;;;;;;;;;;3.30;99.90;;;;;;5051712;28;19921;-76
2022/04/28 02:03:43;;;;;;;;;;;3.30;99.90;;;;;;5050271;28;19921;-76
2022/04/28 02:06:09;;;;;;;;;;;3.30;99.90;;;;;;5068785;28;19927;-76
2022/04/28 02:08:36;;;;;;;;;;;3.30;99.90;;;;;;5071083;28;19947;-76
2022/04/28 02:11:02;;;;;;;;;;;3.20;99.90;;;;;;5057567;28;19920;-76
2022/04/28 02:13:29;;;;;;;;;;;3.20;99.90;;;;;;5051240;28;20393;-76
2022/04/28 02:15:56;;;;;;;;;;;3.20;99.90;;;;;;5051651;28;19928;-76
2022/04/28 02:18:23;;;;;;;;;;;3.10;99.90;;;;;;5051034;28;19925;-76
2022/04/28 02:20:51;;;;;;;;;;;3.10;99.90;;;;;;5051332;28;20124;-76
2022/04/28 02:23:18;;;;;;;;;;;3.10;99.90;;;;;;5068359;28;19921;-76
2022/04/28 02:25:45;;;;;;;;;;;3.10;99.90;;;;;;5069750;28;20421;-76
2022/04/28 02:28:11;;;;;;;;;;;3.00;99.90;;;;;;5067756;28;19920;-76
2022/04/28 02:30:38;;;;;;;;;;;2.90;99.90;;;;;;5071157;28;19961;-76
2022/04/28 02:33:11;;;;;;;;;;;2.90;99.90;;;;;;5070880;28;19924;-76
2022/04/28 02:35:38;;;;;;;;;;;2.90;99.90;;;;;;5069155;28;19920;-76
2022/04/28 02:38:07;;;;;;;;;;;2.80;99.90;;;;;;5070091;28;19924;-76
2022/04/28 02:40:34;;;;;;;;;;;2.70;99.90;;;;;;5069173;28;20421;-76
2022/04/28 02:43:01;;;;;;;;;;;2.70;99.90;;;;;;5068222;28;19924;-76
2022/04/28 02:45:27;;;;;;;;;;;2.60;99.90;;;;;;5069392;28;20286;-76
2022/04/28 02:47:54;;;;;;;;;;;2.60;99.90;;;;;;5069315;28;19929;-76
2022/04/28 02:50:21;;;;;;;;;;;2.60;99.90;;;;;;5070646;28;19926;-76
2022/04/28 02:52:51;;;;;;;;;;;2.50;99.90;;;;;;5067351;28;20346;-76
2022/04/28 02:55:18;;;;;;;;;;;2.40;99.90;;;;;;5070396;28;19931;-76
2022/04/28 02:57:44;;;;;;;;;;;2.40;99.90;;;;;;5057251;28;19920;-76
2022/04/28 03:00:11;;;;;;;;;;;2.30;99.90;;;;;;5050254;28;19920;-76
2022/04/28 03:02:38;;;;;;;;;;;2.30;99.90;;;;;;5049687;28;19920;-76
2022/04/28 03:05:05;;;;;;;;;;;2.30;99.90;;;;;;5050345;28;20434;-76
2022/04/28 03:13:21;;;;;;;;;;;2.30;99.90;;;;;;5047530;28;20280;-76
2022/04/28 03:15:48;;;;;;;;;;;2.30;99.90;;;;;;5065941;28;19924;-76
2022/04/28 03:18:15;;;;;;;;;;;2.30;99.90;;;;;;5067370;28;19970;-76
2022/04/28 03:20:42;;;;;;;;;;;2.30;99.90;;;;;;5069958;28;20449;-76
2022/04/28 03:23:11;;;;;;;;;;;2.30;99.90;;;;;;5067523;28;19920;-76
2022/04/28 03:25:38;;;;;;;;;;;2.30;99.90;;;;;;5069963;28;19928;-76
2022/04/28 03:28:04;;;;;;;;;;;2.30;99.90;;;;;;5067011;28;19927;-76
2022/04/28 03:30:31;;;;;;;;;;;2.30;99.90;;;;;;5070115;28;19926;-76
2022/04/28 03:32:58;;;;;;;;;;;2.40;99.90;;;;;;5069829;28;19926;-76
2022/04/28 03:35:24;;;;;;;;;;;2.30;99.90;;;;;;5069661;28;19924;-76
2022/04/28 03:37:51;;;;;;;;;;;2.40;99.90;;;;;;5066595;28;19924;-76
2022/04/28 03:40:18;;;;;;;;;;;2.30;99.90;;;;;;5069464;28;19920;-76
2022/04/28 03:42:44;;;;;;;;;;;2.30;99.90;;;;;;5066920;28;20006;-76
2022/04/28 03:45:11;;;;;;;;;;;2.30;99.90;;;;;;5068530;28;19920;-76
2022/04/28 03:47:38;;;;;;;;;;;2.30;99.90;;;;;;5062682;28;20299;-76
2022/04/28 03:50:05;;;;;;;;;;;2.30;99.90;;;;;;5049842;28;20011;-76
2022/04/28 03:52:35;;;;;;;;;;;2.30;99.90;;;;;;5057904;28;19966;-76
2022/04/28 03:55:02;;;;;;;;;;;2.30;99.90;;;;;;5069686;28;19928;-76
2022/04/28 03:57:29;;;;;;;;;;;2.40;99.90;;;;;;5050433;28;19935;-76
2022/04/28 03:59:56;;;;;;;;;;;2.50;99.90;;;;;;5069439;28;19921;-76
2022/04/28 04:02:23;;;;;;;;;;;2.60;99.90;;;;;;5066710;28;20011;-76
2022/04/28 04:04:50;;;;;;;;;;;2.60;99.90;;;;;;5052633;28;19927;-76
2022/04/28 04:07:17;;;;;;;;;;;2.60;99.90;;;;;;5066658;28;19920;-76
2022/04/28 04:09:46;;;;;;;;;;;2.60;99.90;;;;;;5068563;28;19920;-76
2022/04/28 04:12:18;;;;;;;;;;;2.60;99.90;;;;;;5070076;28;19920;-76
2022/04/28 04:14:45;;;;;;;;;;;2.50;99.90;;;;;;5069805;28;19931;-76
2022/04/28 04:17:12;;;;;;;;;;;2.50;99.90;;;;;;5069213;28;20363;-76
2022/04/28 04:19:38;;;;;;;;;;;2.50;99.90;;;;;;5059435;28;19998;-76
2022/04/28 04:22:05;;;;;;;;;;;2.50;99.90;;;;;;5050246;28;19924;-76
2022/04/28 04:24:32;;;;;;;;;;;2.50;99.90;;;;;;5068701;28;19942;-76
2022/04/28 04:26:59;;;;;;;;;;;2.50;99.90;;;;;;5067175;28;19955;-76
2022/04/28 04:29:26;;;;;;;;;;;2.50;99.90;;;;;;5069292;28;19920;-76
2022/04/28 04:34:37;;;;;;;;;;;2.60;99.90;;;;;;5067457;28;19924;-76
2022/04/28 04:37:05;;;;;;;;;;;2.70;99.90;;;;;;5065532;28;19932;-76
2022/04/28 04:39:32;;;;;;;;;;;2.80;99.90;;;;;;5067876;28;19990;-76
2022/04/28 04:41:58;;;;;;;;;;;2.90;99.90;;;;;;5069106;28;19946;-76
2022/04/28 04:44:25;;;;;;;;;;;3.00;99.90;;;;;;5068727;28;19930;-76
2022/04/28 04:46:51;;;;;;;;;;;3.10;99.90;;;;;;5068450;28;19921;-76
2022/04/28 04:49:18;;;;;;;;;;;3.20;99.90;;;;;;5066889;28;19928;-76
2022/04/28 04:51:45;;;;;;;;;;;3.30;99.90;;;;;;5059985;28;19935;-76
2022/04/28 04:54:11;;;;;;;;;;;3.40;99.90;;;;;;5049029;28;20294;-76
2022/04/28 04:56:38;;;;;;;;;;;3.60;99.90;;;;;;5064409;28;19927;-76
2022/04/28 04:59:05;;;;;;;;;;;3.70;99.90;;;;;;5064292;28;20011;-76
2022/04/28 05:01:32;;;;;;;;;;;3.80;99.90;;;;;;5069037;28;19927;-76
2022/04/28 05:03:59;;;;;;;;;;;3.90;99.90;;;;;;5069895;28;20418;-76
2022/04/28 05:06:26;;;;;;;;;;;3.90;99.90;;;;;;5068905;28;19927;-76
2022/04/28 05:08:55;;;;;;;;;;;4.10;99.90;;;;;;5068070;28;19947;-76
2022/04/28 05:11:22;;;;;;;;;;;4.20;99.90;;;;;;5072487;28;19920;-76
2022/04/28 05:13:48;;;;;;;;;;;4.40;99.90;;;;;;5070997;28;20584;-75
2022/04/28 05:16:15;;;;;;;;;;;4.60;99.90;;;;;;5070762;28;20371;-74
2022/04/28 05:18:42;;;;;;;;;;;4.80;99.90;;;;;;5069540;28;19928;-75
2022/04/28 05:21:08;;;;;;;;;;;4.90;99.90;;;;;;5072052;28;20367;-76
2022/04/28 05:23:35;;;;;;;;;;;5.10;99.90;;;;;;5067898;28;19930;-74
2022/04/28 05:26:02;;;;;;;;;;;5.20;99.90;;;;;;5070740;28;20203;-74
2022/04/28 05:28:29;;;;;;;;;;;5.40;99.90;;;;;;5070021;28;19928;-74
2022/04/28 05:30:55;;;;;;;;;;;5.50;99.90;;;;;;5071785;28;19924;-75
2022/04/28 05:33:22;;;;;;;;;;;5.60;99.90;;;;;;5071693;28;20375;-74
2022/04/28 05:35:49;;;;;;;;;;;5.70;99.90;;;;;;5070558;28;19926;-74
2022/04/28 05:38:16;;;;;;;;;;;5.90;99.90;;;;;;5066983;28;19966;-75
2022/04/28 05:40:46;;;;;;;;;;;6.00;99.90;;;;;;5066019;28;19925;-75
2022/04/28 05:45:58;;;;;;;;;;;7.20;99.90;;;;;;5070610;28;19921;-75
2022/04/28 05:48:25;;;;;;;;;;;9.00;99.90;;;;;;5052014;28;20272;-76
2022/04/28 05:50:52;;;;;;;;;;;10.70;99.90;;;;;;5055102;28;20402;-73
2022/04/28 05:53:19;;;;;;;;;;;11.90;99.90;;;;;;5068582;28;19938;-73
2022/04/28 05:55:46;;;;;;;;;;;12.90;99.90;;;;;;5071039;28;19924;-73
2022/04/28 05:58:13;;;;;;;;;;;13.90;99.90;;;;;;5071541;28;20286;-73
2022/04/28 06:00:39;;;;;;;;;;;14.50;99.90;;;;;;5071424;28;19920;-73
2022/04/28 06:03:06;;;;;;;;;;;15.10;99.90;;;;;;5070446;28;20393;-73
2022/04/28 06:05:36;;;;;;;;;;;15.50;99.90;;;;;;5067937;28;20007;-73
2022/04/28 06:08:03;;;;;;;;;;;16.00;99.90;;;;;;5070700;28;20011;-73
2022/04/28 06:10:30;;;;;;;;;;;16.40;99.90;;;;;;5066883;28;19920;-73
2022/04/28 06:12:56;;;;;;;;;;;17.00;99.90;;;;;;5069640;28;19927;-73
2022/04/28 06:15:23;;;;;;;;;;;17.50;99.90;;;;;;5070887;28;20279;-73
2022/04/28 06:17:59;;;;;;;;;;;17.50;99.90;;;;;;5070602;28;20015;-73
2022/04/28 06:20:26;;;;;;;;;;;17.40;99.90;;;;;;5070876;28;19924;-74
2022/04/28 06:22:52;;;;;;;;;;;16.90;99.90;;;;;;5067466;28;20354;-74
2022/04/28 06:25:26;;;;;;;;;;;17.10;99.90;;;;;;5071295;28;19926;-74
2022/04/28 06:27:54;;;;;;;;;;;17.30;99.90;;;;;;5070467;28;19924;-74
2022/04/28 06:30:21;;;;;;;;;;;17.10;99.90;;;;;;5068950;28;20147;-74
2022/04/28 06:32:49;;;;;;;;;;;17.40;99.90;;;;;;5069717;28;19924;-74
2022/04/28 06:35:16;;;;;;;;;;;17.40;99.90;;;;;;5068307;28;20120;-74
2022/04/28 06:37:43;;;;;;;;;;;17.70;99.90;;;;;;5070675;28;20384;-74
2022/04/28 06:40:12;;;;;;;;;;;18.00;99.90;;;;;;5070756;28;20006;-74
2022/04/28 06:42:42;;;;;;;;;;;18.10;99.90;;;;;;5069919;28;19940;-74
2022/04/28 06:45:09;;;;;;;;;;;18.50;99.90;;;;;;5070406;28;19974;-74
2022/04/28 06:47:41;;;;;;;;;;;18.60;99.90;;;;;;5069178;28;19926;-74
2022/04/28 06:50:08;;;;;;;;;;;18.90;99.90;;;;;;5070933;28;19926;-74
2022/04/28 06:52:35;;;;;;;;;;;19.00;99.90;;;;;;5059993;28;20002;-74
2022/04/28 06:55:09;;;;;;;;;;;19.00;99.90;;;;;;5067043;28;19920;-74
2022/04/28 06:57:37;;;;;;;;;;;18.90;99.90;;;;;;5069459;28;19968;-74
2022/04/28 07:00:04;;;;;;;;;;;18.70;99.90;;;;;;5070729;28;19931;-74
2022/04/28 07:02:31;;;;;;;;;;;19.40;99.90;;;;;;5066825;28;19926;-74
2022/04/28 07:05:05;;;;;;;;;;;19.30;99.90;;;;;;5070517;28;19928;-74
2022/04/28 07:07:32;;;;;;;;;;;19.50;99.90;;;;;;5067832;28;20375;-74
2022/04/28 07:09:59;;;;;;;;;;;19.40;99.90;;;;;;5070530;28;19920;-74
2022/04/28 07:12:31;;;;;;;;;;;19.60;99.90;;;;;;5068098;28;19978;-74
2022/04/28 07:14:58;;;;;;;;;;;19.70;99.90;;;;;;5068012;28;19920;-72
2022/04/28 07:17:25;;;;;;;;;;;20.10;99.90;;;;;;5069823;28;20405;-71
2022/04/28 07:19:52;;;;;;;;;;;20.20;99.90;;;;;;5067169;28;19978;-72
2022/04/28 07:22:21;;;;;;;;;;;20.60;99.90;;;;;;5069111;28;20007;-72
2022/04/28 07:24:48;;;;;;;;;;;20.70;99.90;;;;;;5067543;28;19978;-72
2022/04/28 07:27:15;;;;;;;;;;;20.40;99.90;;;;;;5066091;28;20367;-72
2022/04/28 07:29:42;;;;;;;;;;;20.60;99.90;;;;;;5069988;28;19921;-72
2022/04/28 07:32:09;;;;;;;;;;;20.60;99.90;;;;;;5069617;28;19920;-72
2022/04/28 07:34:36;;;;;;;;;;;21.10;99.90;;;;;;5064916;28;19931;-72
2022/04/28 07:37:03;;;;;;;;;;;20.80;99.90;;;;;;5069871;28;19927;-72
2022/04/28 07:39:30;;;;;;;;;;;21.00;99.90;;;;;;5068111;28;20305;-72
2022/04/28 07:41:57;;;;;;;;;;;20.70;99.90;;;;;;5066564;28;19920;-72
2022/04/28 07:44:23;;;;;;;;;;;20.80;99.90;;;;;;5068695;28;19921;-73
2022/04/28 07:46:50;;;;;;;;;;;20.70;99.90;;;;;;5061046;28;19920;-72
2022/04/28 07:49:19;;;;;;;;;;;21.00;99.90;;;;;;5066863;28;19920;-75
2022/04/28 07:51:45;;;;;;;;;;;21.40;99.90;;;;;;5049415;28;19925;-75
2022/04/28 07:54:12;;;;;;;;;;;21.50;99.90;;;;;;5071514;28;19920;-75
2022/04/28 07:56:39;;;;;;;;;;;21.40;99.90;;;;;;5068411;28;19927;-75
2022/04/28 07:59:07;;;;;;;;;;;21.20;99.90;;;;;;5069451;28;20410;-72
2022/04/28 08:01:51;;;;;;;;;;;21.40;99.90;;;;;;5067138;28;19928;-73
2022/04/28 08:04:17;;;;;;;;;;;21.90;99.90;;;;;;5066809;28;20374;-74
2022/04/28 08:06:44;;;;;;;;;;;22.10;99.90;;;;;;5067342;28;19920;-74
2022/04/28 08:09:11;;;;;;;;;;;21.90;99.90;;;;;;5069594;28;19927;-75
2022/04/28 08:11:40;;;;;;;;;;;21.60;99.90;;;;;;5069375;28;20009;-75
2022/04/28 08:14:07;;;;;;;;;;;21.80;99.90;;;;;;5066950;28;19970;-75
2022/04/28 08:16:33;;;;;;;;;;;22.20;99.90;;;;;;5066583;28;19927;-74
2022/04/28 08:19:01;;;;;;;;;;;22.30;99.90;;;;;;5066498;28;19970;-74
2022/04/28 08:21:28;;;;;;;;;;;22.20;99.90;;;;;;5066379;28;19946;-74
2022/04/28 08:23:54;;;;;;;;;;;22.30;99.90;;;;;;5049247;28;19998;-75
2022/04/28 08:26:21;;;;;;;;;;;22.10;99.90;;;;;;5049060;28;19921;-75
2022/04/28 08:28:48;;;;;;;;;;;21.90;99.90;;;;;;5060845;28;19920;-74
2022/04/28 08:31:15;;;;;;;;;;;21.50;99.90;;;;;;5068757;28;19921;-74
2022/04/28 08:33:45;;;;;;;;;;;21.60;99.90;;;;;;5069083;28;20394;-75
2022/04/28 08:36:15;;;;;;;;;;;22.10;99.90;;;;;;5067285;28;19950;-75
2022/04/28 08:38:42;;;;;;;;;;;21.90;99.90;;;;;;5068067;28;20291;-76
2022/04/28 08:41:11;;;;;;;;;;;21.70;99.90;;;;;;5070418;28;19920;-75
2022/04/28 08:43:38;;;;;;;;;;;22.60;99.90;;;;;;5070514;28;19920;-74
2022/04/28 08:48:51;;;;;;;;;;;23.10;99.90;;;;;;5064981;28;19927;-74
2022/04/28 08:51:19;;;;;;;;;;;22.80;99.70;;;;;;5069961;28;19920;-73
2022/04/28 08:53:47;;;;;;;;;;;22.60;99.80;;;;;;5072562;28;19924;-74
2022/04/28 08:56:18;;;;;;;;;;;22.30;99.90;;;;;;5072795;28;20019;-74
2022/04/28 08:58:45;;;;;;;;;;;22.30;99.90;;;;;;5069870;28;19924;-74
2022/04/28 09:01:12;;;;;;;;;;;22.10;99.90;;;;;;5071827;28;20065;-74
2022/04/28 09:03:38;;;;;;;;;;;22.70;99.90;;;;;;5072859;28;19920;-75
2022/04/28 09:06:29;;;;;;;;;;;22.70;99.80;;;;;;5072553;28;19920;-74
2022/04/28 09:09:10;;;;;;;;;;;23.20;99.90;;;;;;5072473;28;19960;-75
2022/04/28 09:11:39;;;;;;;;;;;23.60;99.40;;;;;;5071745;28;20077;-74
2022/04/28 09:14:15;;;;;;;;;;;23.50;99.40;;;;;;5070994;28;19928;-74
2022/04/28 09:16:43;;;;;;;;;;;23.40;97.70;;;;;;5072204;28;19949;-75
2022/04/28 09:19:11;;;;;;;;;;;23.20;98.10;;;;;;5071568;28;20355;-73
2022/04/28 09:21:37;;;;;;;;;;;23.80;98.10;;;;;;5071273;28;20135;-75
2022/04/28 09:24:10;;;;;;;;;;;24.00;97.10;;;;;;5072105;28;20019;-75
2022/04/28 09:26:40;;;;;;;;;;;23.70;95.60;;;;;;5068201;28;20379;-75
2022/04/28 09:29:10;;;;;;;;;;;23.60;95.70;;;;;;5072380;28;19920;-75
2022/04/28 09:31:37;;;;;;;;;;;23.00;96.50;;;;;;5069731;28;20375;-75
2022/04/28 09:34:24;;;;;;;;;;;23.40;95.90;;;;;;5069403;28;19927;-75
2022/04/28 09:36:51;;;;;;;;;;;23.40;95.30;;;;;;5071984;28;19927;-75
2022/04/28 09:44:53;;;;;;;;;;;25.00;94.80;;;;;;5072311;28;19920;-73
2022/04/28 09:47:21;;;;;;;;;;;25.60;93.80;;;;;;5065553;28;19920;-73
2022/04/28 09:49:52;;;;;;;;;;;26.00;93.70;;;;;;5067364;28;19924;-73
2022/04/28 09:52:29;;;;;;;;;;;25.90;93.30;;;;;;5056852;28;20511;-75
2022/04/28 09:54:57;;;;;;;;;;;25.70;95.20;;;;;;5068258;28;20516;-75
2022/04/28 09:57:23;;;;;;;;;;;25.80;93.80;;;;;;5070912;28;20449;-75
2022/04/28 09:59:54;;;;;;;;;;;25.50;93.80;;;;;;5064007;28;19920;-75
2022/04/28 10:02:22;;;;;;;;;;;25.70;93.70;;;;;;5065801;28;20382;-73
2022/04/28 10:04:49;;;;;;;;;;;26.20;93.50;;;;;;5069839;28;19928;-74
2022/04/28 10:07:16;;;;;;;;;;;27.10;92.70;;;;;;5069891;28;20361;-73
2022/04/28 10:09:48;;;;;;;;;;;26.90;91.70;;;;;;5053001;28;19920;-73
2022/04/28 10:12:17;;;;;;;;;;;26.70;91.00;;;;;;5051883;28;19927;-73
2022/04/28 10:14:45;;;;;;;;;;;24.90;91.40;;;;;;5052005;28;19921;-73
2022/04/28 10:17:14;;;;;;;;;;;23.50;92.00;;;;;;5068976;28;19921;-73
2022/04/28 10:19:43;;;;;;;;;;;22.40;92.20;;;;;;5069480;28;20383;-73
2022/04/28 10:22:16;;;;;;;;;;;21.20;93.30;;;;;;5071523;28;20404;-73
2022/04/28 10:33:10;;;;;;;;;;;21.30;93.60;;;;;;5077899;28;19920;-74
2022/04/28 10:35:43;;;;;;;;;;;20.80;94.20;;;;;;5071195;28;20351;-74
2022/04/28 10:38:18;;;;;;;;;;;21.50;93.90;;;;;;5068092;28;20188;-74
2022/04/28 10:40:53;;;;;;;;;;;22.00;93.50;;;;;;5066819;28;19924;-74
2022/04/28 10:43:21;;;;;;;;;;;21.50;91.90;;;;;;5050693;28;20272;-74
2022/04/28 10:45:49;;;;;;;;;;;20.80;91.20;;;;;;5065662;28;20375;-74
2022/04/28 10:48:29;;;;;;;;;;;20.60;91.10;;;;;;5069473;28;19982;-74
2022/04/28 10:50:58;;;;;;;;;;;20.50;90.60;;;;;;5069500;28;19924;-74
2022/04/28 10:53:25;;;;;;;;;;;20.00;91.50;;;;;;5071346;28;19998;-74
2022/04/28 10:55:52;;;;;;;;;;;20.30;92.60;;;;;;5068806;28;19975;-75
2022/04/28 10:58:23;;;;;;;;;;;21.50;92.80;;;;;;5069431;28;20473;-75
2022/04/28 11:00:53;;;;;;;;;;;22.90;91.20;;;;;;5069252;28;19932;-75
2022/04/28 11:03:40;;;;;;;;;;;24.40;90.70;;;;;;5067555;28;19924;-75
2022/04/28 11:06:13;;;;;;;;;;;25.70;90.20;;;;;;5070653;28;19947;-75
2022/04/28 11:08:47;;;;;;;;;;;25.40;88.50;;;;;;5070116;28;19926;-75
2022/04/28 11:11:16;;;;;;;;;;;25.00;89.20;;;;;;5067826;28;19960;-74
2022/04/28 11:13:48;;;;;;;;;;;23.80;89.60;;;;;;5068583;28;20276;-74
2022/04/28 11:16:16;;;;;;;;;;;23.10;90.20;;;;;;5068767;28;20371;-75
2022/04/28 11:18:43;;;;;;;;;;;23.50;90.90;;;;;;5063860;28;19920;-75
2022/04/28 11:21:11;;;;;;;;;;;23.60;90.30;;;;;;5050479;28;19921;-75
2022/04/28 11:23:40;;;;;;;;;;;24.00;91.10;;;;;;5061095;28;19928;-75
2022/04/28 11:26:08;;;;;;;;;;;24.10;90.50;;;;;;5070309;28;19920;-75
2022/04/28 11:28:40;;;;;;;;;;;23.60;90.10;;;;;;5068841;28;19924;-75
2022/04/28 11:31:08;;;;;;;;;;;23.50;91.00;;;;;;5070019;28;20353;-75
2022/04/28 11:33:35;;;;;;;;;;;23.80;90.30;;;;;;5068116;28;20120;-75
2022/04/28 11:36:18;;;;;;;;;;;23.90;90.00;;;;;;5067998;28;19920;-75
2022/04/28 11:38:48;;;;;;;;;;;24.10;89.80;;;;;;5049907;28;19928;-75
2022/04/28 11:41:16;;;;;;;;;;;24.60;88.40;;;;;;5049973;28;19974;-75
2022/04/28 11:43:42;;;;;;;;;;;24.30;88.30;;;;;;5049026;28;19920;-73
2022/04/28 11:46:09;;;;;;;;;;;23.10;89.20;;;;;;5068090;28;19920;-74
2022/04/28 11:48:38;;;;;;;;;;;21.90;89.30;;;;;;5068099;28;19921;-75
2022/04/28 11:51:05;;;;;;;;;;;21.60;90.60;;;;;;5069877;28;19920;-74
2022/04/28 11:53:38;;;;;;;;;;;21.60;90.30;;;;;;5069225;28;20319;-74
2022/04/28 11:56:28;;;;;;;;;;;21.40;89.50;;;;;;5069212;28;19974;-74
2022/04/28 11:58:55;;;;;;;;;;;21.20;89.90;;;;;;5069060;28;19966;-74
2022/04/28 12:01:22;;;;;;;;;;;20.80;90.40;;;;;;5067038;28;19920;-74
2022/04/28 12:03:50;;;;;;;;;;;20.90;90.80;;;;;;5068289;28;19998;-74
2022/04/28 12:06:17;;;;;;;;;;;21.40;91.00;;;;;;5068387;28;19924;-74
2022/04/28 12:08:48;;;;;;;;;;;22.30;91.10;;;;;;5068472;28;19926;-74
2022/04/28 12:19:31;;;;;;;;;;;25.60;88.50;;;;;;5065113;28;20029;-74
2022/04/28 12:22:02;;;;;;;;;;;25.30;86.50;;;;;;5069333;28;19920;-74
2022/04/28 12:24:35;;;;;;;;;;;25.40;87.70;;;;;;5063637;28;20379;-74
2022/04/28 12:27:07;;;;;;;;;;;25.30;86.70;;;;;;5068922;28;19952;-74
2022/04/28 12:29:52;;;;;;;;;;;25.10;87.00;;;;;;5068504;28;19921;-74
2022/04/28 12:32:20;;;;;;;;;;;24.80;86.40;;;;;;5060298;28;19966;-74
2022/04/28 12:35:05;;;;;;;;;;;24.00;89.40;;;;;;5060153;28;19921;-74
2022/04/28 12:37:32;;;;;;;;;;;23.20;90.40;;;;;;5051204;28;19966;-74
2022/04/28 12:40:00;;;;;;;;;;;22.80;89.40;;;;;;5067715;28;19928;-74
2022/04/28 12:42:29;;;;;;;;;;;23.10;90.60;;;;;;5066041;28;19931;-75
2022/04/28 12:44:58;;;;;;;;;;;23.70;89.50;;;;;;5067718;28;19920;-73
2022/04/28 12:47:35;;;;;;;;;;;24.10;87.80;;;;;;5068524;28;20109;-74
2022/04/28 12:50:25;;;;;;;;;;;25.10;89.20;;;;;;5069224;28;19921;-75
2022/04/28 12:52:51;;;;;;;;;;;25.40;87.40;;;;;;5065599;28;19934;-75
2022/04/28 12:55:19;;;;;;;;;;;25.40;87.30;;;;;;5067253;28;19927;-72
2022/04/28 12:57:46;;;;;;;;;;;24.90;86.20;;;;;;5066027;28;20307;-72
2022/04/28 13:00:14;;;;;;;;;;;24.50;88.30;;;;;;5068853;28;19927;-75
2022/04/28 13:02:48;;;;;;;;;;;25.00;86.70;;;;;;5069247;28;19928;-75
2022/04/28 13:05:16;;;;;;;;;;;25.10;86.80;;;;;;5067588;28;19997;-75
2022/04/28 13:08:01;;;;;;;;;;;24.80;85.30;;;;;;5066439;28;19927;-75
2022/04/28 13:10:28;;;;;;;;;;;25.00;85.60;;;;;;5068833;28;20441;-75
2022/04/28 13:12:54;;;;;;;;;;;24.90;84.90;;;;;;5068510;28;20012;-75
2022/04/28 13:15:21;;;;;;;;;;;24.90;87.00;;;;;;5065225;28;19928;-75
2022/04/28 13:17:50;;;;;;;;;;;25.10;85.10;;;;;;5067936;28;20170;-75
2022/04/28 13:20:19;;;;;;;;;;;25.60;85.50;;;;;;5068612;28;20389;-75
2022/04/28 13:22:46;;;;;;;;;;;25.50;85.20;;;;;;5068761;28;19990;-75
2022/04/28 13:25:13;;;;;;;;;;;25.50;85.20;;;;;;5065958;28;19920;-72
2022/04/28 13:27:39;;;;;;;;;;;24.70;85.30;;;;;;5070611;28;19927;-72
2022/04/28 13:30:09;;;;;;;;;;;23.90;86.30;;;;;;5071992;28;19951;-74
2022/04/28 13:32:36;;;;;;;;;;;23.40;88.30;;;;;;5072545;28;19927;-73
2022/04/28 13:35:03;;;;;;;;;;;23.40;87.50;;;;;;5069299;22;19920;-64
2022/04/28 13:37:30;;;;;;;;;;;23.90;86.30;;;;;;5050517;28;20014;-64
2022/04/28 13:39:56;;;;;;;;;;;24.10;85.50;;;;;;5053701;28;20047;-65
2022/04/28 13:42:23;;;;;;;;;;;24.30;86.20;;;;;;5053445;28;19955;-64
2022/04/28 13:44:53;;;;;;;;;;;24.10;86.60;;;;;;5051784;28;20472;-64
2022/04/28 13:47:19;;;;;;;;;;;24.20;86.00;;;;;;5052465;28;19921;-64
2022/04/28 13:49:46;;;;;;;;;;;24.80;84.80;;;;;;5051317;28;19970;-64
2022/04/28 13:52:13;;;;;;;;;;;25.30;85.30;;;;;;5051752;28;20427;-64
2022/04/28 13:54:39;;;;;;;;;;;26.30;84.20;;;;;;5052151;28;20015;-64
2022/04/28 13:57:07;;;;;;;;;;;27.10;82.80;;;;;;5053509;28;19978;-64
2022/04/28 13:59:33;;;;;;;;;;;27.80;83.40;;;;;;5052490;28;19927;-64
2022/04/28 14:02:00;;;;;;;;;;;28.30;82.00;;;;;;5052654;28;20019;-64
2022/04/28 14:04:27;;;;;;;;;;;28.80;81.40;;;;;;5084530;28;19944;-64
2022/04/28 14:06:54;;;;;;;;;;;29.30;78.90;;;;;;5052882;28;19931;-64
2022/04/28 14:09:21;;;;;;;;;;;28.50;79.20;;;;;;5052882;28;19927;-64
2022/04/28 14:11:48;;;;;;;;;;;27.60;80.50;;;;;;5052202;28;19925;-64
2022/04/28 14:14:17;;;;;;;;;;;27.40;79.20;;;;;;5052289;28;20356;-64
2022/04/28 14:16:44;;;;;;;;;;;27.60;79.70;;;;;;5053306;28;19921;-64
2022/04/28 14:19:11;;;;;;;;;;;28.40;79.40;;;;;;5052012;28;19959;-64
2022/04/28 14:21:38;;;;;;;;;;;28.80;79.20;;;;;;5052595;28;20015;-64
2022/04/28 14:24:11;;;;;;;;;;;29.40;78.60;;;;;;5052991;28;20011;-64
2022/04/28 14:26:38;;;;;;;;;;;28.50;78.90;;;;;;5052166;28;19925;-64
2022/04/28 14:29:05;;;;;;;;;;;28.20;78.50;;;;;;5051992;28;20454;-65
2022/04/28 14:31:32;;;;;;;;;;;28.20;77.90;;;;;;5053317;28;19955;-64
2022/04/28 14:34:21;;;;;;;;;;;28.60;77.50;;;;;;5050304;28;19920;-65
2022/04/28 14:36:48;;;;;;;;;;;29.00;78.40;;;;;;5051463;28;20019;-64
2022/04/28 14:39:14;;;;;;;;;;;29.40;78.30;;;;;;5052127;28;19932;-64
2022/04/28 14:41:41;;;;;;;;;;;29.60;78.10;;;;;;5052609;28;20551;-64
2022/04/28 14:44:08;;;;;;;;;;;29.20;78.00;;;;;;5052364;28;20350;-64
2022/04/28 14:46:41;;;;;;;;;;;28.30;78.00;;;;;;5052568;28;19948;-64
2022/04/28 14:54:41;;;;;;;;;;;28.00;77.40;;;;;;5052060;28;19921;-63
2022/04/28 14:57:14;;;;;;;;;;;26.60;78.20;;;;;;5067116;28;20395;-64
2022/04/28 14:59:41;;;;;;;;;;;25.90;79.80;;;;;;5050028;28;19921;-64
2022/04/28 15:02:10;;;;;;;;;;;26.70;80.60;;;;;;5052846;28;20011;-63
2022/04/28 15:04:37;;;;;;;;;;;26.90;80.00;;;;;;5050657;28;19925;-63
2022/04/28 15:07:05;;;;;;;;;;;27.00;78.30;;;;;;5052401;28;20466;-64
2022/04/28 15:09:32;;;;;;;;;;;27.20;77.60;;;;;;5051142;28;19987;-64
2022/04/28 15:11:59;;;;;;;;;;;27.50;78.50;;;;;;5052625;28;20276;-64
2022/04/28 15:14:26;;;;;;;;;;;27.30;78.30;;;;;;5051450;28;19924;-64
2022/04/28 15:16:52;;;;;;;;;;;27.10;77.40;;;;;;5049148;28;20331;-64